EHMA

Awg-1 Sea

Awg-1 Sea, The Netherlands
METAR EHMA 181425Z AUTO 25019KT 9999 FEW018 BKN034 20/14 Q1020 REDZ W///H///
Observed Flight Rules
Aug-18 @ 14:25 UTC (26 minutes ago) Visual Flight Rules
Wind Visibility Clouds
250° at 19 knots 10,000+ meters
  • Few at 1,800' AGL
  • Broken at 3,400' AGL
Temperatures Readings
Current 20°C / 68°F
Dewpoint 14°C / 57°F
Humidity 69%
Altimeter 30.12" Hg
Pressure 1020 hPa
Elevation 50
METAR EHMA 181425Z AUTO 25019KT 9999 FEW018 BKN034 20/14 Q1020 REDZ W///H///
Observed Flight Rules
Aug-18 @ 14:25 UTC
(26 minutes ago)
VFR
Wind Visibility
250° at 19 knots 10,000+ meters
Clouds
  • Few at 1,800' AGL
  • Broken at 3,400' AGL
Temperature Dewpoint
20°C / 68°F 14°C / 57°F
Humidity Altimeter Pressure
69% 30.12" Hg 1020 hPa